Alexander, West Virginia
Current Conditions -  °F | °C
As of 4:35 AM on Monday 24 Nov 2014 (Local Time) from KW22 Reporting Station
Overcast Overcast  
Wind Chill: 17°   Ceiling: 6000
Heat Index: 17°   Visibility: 10mi
Dew Point:   Wind: 16mph
Humidity: 59%   Direction: 190°S
Pressure: 29.52"   Gusts: 29mph
Location:  38.8347°N, 80.2578°W
Report Text: KW22 240935Z AUTO 19014G25KT 10SM FEW050 OVC060 17/09 A2952 RMK AO2
Loading
Personal Weather Stations






























Interactive Weather Map New forecast layout! Learn more

10-Day Weather Forecast

Advertisements
Track Severe Weather on mobile